createdAt,value
2018-03-24T00:00:32.845Z,47.35
2018-03-24T00:03:03.622Z,49.83
2018-03-24T00:05:34.641Z,50.80
2018-03-24T00:08:05.630Z,55.00
2018-03-24T00:10:36.635Z,58.95
2018-03-24T00:13:07.605Z,64.20
2018-03-24T00:15:38.627Z,66.62
2018-03-24T00:18:09.576Z,67.10
2018-03-24T00:20:40.604Z,65.75
2018-03-24T00:23:11.229Z,70.30
2018-03-24T00:25:42.507Z,70.82
2018-03-24T00:28:13.440Z,89.50
2018-03-24T00:30:44.153Z,81.88
2018-03-24T00:33:14.693Z,78.00
2018-03-24T00:35:45.702Z,79.43
2018-03-24T00:38:16.688Z,81.28
2018-03-24T00:40:47.705Z,74.97
2018-03-24T00:43:18.628Z,73.20
2018-03-24T00:45:49.678Z,72.18
2018-03-24T00:48:20.678Z,70.93
2018-03-24T00:50:51.913Z,68.52
2018-03-24T00:53:22.727Z,66.00
2018-03-24T00:55:53.792Z,68.47
2018-03-24T00:58:24.769Z,65.80
2018-03-24T01:00:56.450Z,65.10
2018-03-24T01:03:27.115Z,69.08
2018-03-24T01:05:57.828Z,63.83
2018-03-24T01:08:28.601Z,66.85
2018-03-24T01:10:59.757Z,67.06
2018-03-24T01:13:30.417Z,68.56
2018-03-24T01:16:01.092Z,65.06
2018-03-24T01:18:31.662Z,62.65
2018-03-24T01:21:03.664Z,66.65
2018-03-24T01:23:34.320Z,58.76
2018-03-24T01:26:05.689Z,57.47
2018-03-24T01:28:36.329Z,54.88
2018-03-24T01:31:05.692Z,53.72
2018-03-24T01:33:36.289Z,53.60
2018-03-24T01:36:07.024Z,53.60
2018-03-24T01:38:37.927Z,53.67
2018-03-24T01:41:09.327Z,56.34
2018-03-24T01:43:39.993Z,56.63
2018-03-24T01:46:11.014Z,58.50
2018-03-24T01:48:41.884Z,57.55
2018-03-24T01:51:13.297Z,56.76
2018-03-24T01:53:53.961Z,60.92
2018-03-24T01:56:23.263Z,58.50
2018-03-24T01:58:52.765Z,58.75
2018-03-24T02:01:21.972Z,56.50
2018-03-24T02:03:51.228Z,56.37
2018-03-24T02:06:20.414Z,55.00
2018-03-24T02:08:51.045Z,54.36
2018-03-24T02:11:22.237Z,51.42
2018-03-24T02:13:52.763Z,53.92
2018-03-24T02:16:23.636Z,56.67
2018-03-24T02:18:55.411Z,59.20
2018-03-24T02:21:40.705Z,64.86
2018-03-24T02:24:10.145Z,60.78
2018-03-24T02:26:39.416Z,56.92
2018-03-24T02:29:08.900Z,53.58
2018-03-24T02:31:39.146Z,53.13
2018-03-24T02:34:08.422Z,51.75
2018-03-24T02:36:37.756Z,52.33
2018-03-24T02:39:07.386Z,51.95
2018-03-24T02:41:36.752Z,53.00
2018-03-24T02:44:05.953Z,52.62
2018-03-24T02:46:35.168Z,49.75
2018-03-24T02:49:04.421Z,49.95
2018-03-24T02:51:35.032Z,51.36
2018-03-24T02:54:05.110Z,47.97
2018-03-24T02:56:35.741Z,48.03
2018-03-24T02:59:06.656Z,47.10
2018-03-24T03:01:37.600Z,49.33
2018-03-24T03:04:08.596Z,47.17
2018-03-24T03:06:39.541Z,48.97
2018-03-24T03:09:10.221Z,52.10
2018-03-24T03:11:40.760Z,50.78
2018-03-24T03:14:11.704Z,47.80
2018-03-24T03:16:42.671Z,50.10
2018-03-24T03:19:13.724Z,52.78
2018-03-24T03:21:55.229Z,54.38
2018-03-24T03:24:26.587Z,52.45
2018-03-24T03:26:55.871Z,52.58
2018-03-24T03:29:25.073Z,50.00
2018-03-24T03:34:59.932Z,50.85
2018-03-24T03:37:28.905Z,49.70
2018-03-24T03:39:58.582Z,51.20
2018-03-24T03:42:27.499Z,53.73
2018-03-24T03:44:56.628Z,55.27
2018-03-24T03:47:25.524Z,54.30
2018-03-24T03:49:55.106Z,51.93
2018-03-24T03:52:24.145Z,49.33
2018-03-24T03:54:58.472Z,50.97
2018-03-24T03:57:27.638Z,50.70
2018-03-24T03:59:56.557Z,49.17
2018-03-24T04:02:25.481Z,52.73
2018-03-24T04:04:54.611Z,50.63
2018-03-24T04:07:23.549Z,50.40
2018-03-24T04:09:52.504Z,50.30
2018-03-24T04:12:21.615Z,51.63
2018-03-24T04:14:50.714Z,50.90
2018-03-24T04:17:19.789Z,54.30
2018-03-24T04:19:49.024Z,54.03
2018-03-24T04:22:18.212Z,53.10
2018-03-24T04:24:47.410Z,50.75
2018-03-24T04:27:16.764Z,52.35
2018-03-24T04:29:46.062Z,50.72
2018-03-24T04:32:15.354Z,52.38
2018-03-24T04:34:44.861Z,53.30
2018-03-24T04:37:14.028Z,53.00
2018-03-24T04:39:44.097Z,56.77
2018-03-24T04:42:14.480Z,56.42
2018-03-24T04:44:44.125Z,56.95
2018-03-24T04:47:14.818Z,56.33
2018-03-24T04:49:45.714Z,54.10
2018-03-24T04:52:16.712Z,55.67
2018-03-24T04:54:47.677Z,55.53
2018-03-24T04:57:18.623Z,51.90
2018-03-24T04:59:49.291Z,51.88
2018-03-24T05:02:19.780Z,51.97
2018-03-24T05:04:50.616Z,51.97
2018-03-24T05:07:21.682Z,53.92
2018-03-24T05:09:53.310Z,53.90
2018-03-24T05:12:25.038Z,54.44
2018-03-24T05:14:54.255Z,52.03
2018-03-24T05:17:24.782Z,53.75
2018-03-24T05:19:55.732Z,56.75
2018-03-24T05:22:26.611Z,60.67
2018-03-24T05:24:57.256Z,59.38
2018-03-24T05:27:27.708Z,57.47
2018-03-24T05:30:00.268Z,56.92
2018-03-24T05:32:30.009Z,56.45
2018-03-24T05:35:00.735Z,55.88
2018-03-24T05:37:31.295Z,61.34
2018-03-24T05:40:01.844Z,68.62
2018-03-24T05:42:32.699Z,68.32
2018-03-24T05:45:03.697Z,66.30
2018-03-24T05:47:34.668Z,64.03
2018-03-24T05:50:05.747Z,70.05
2018-03-24T05:52:36.708Z,62.15
2018-03-24T05:55:07.711Z,60.42
2018-03-24T05:57:43.917Z,68.15
2018-03-24T06:00:13.124Z,69.97
2018-03-24T06:02:42.328Z,67.52
2018-03-24T06:05:12.002Z,69.00
2018-03-24T06:07:42.826Z,68.00
2018-03-24T06:10:13.700Z,66.72
2018-03-24T06:12:44.737Z,62.45
2018-03-24T06:15:15.692Z,62.30
2018-03-24T06:17:46.802Z,72.60
2018-03-24T06:20:17.651Z,81.75
2018-03-24T06:22:48.654Z,81.47
2018-03-24T06:25:19.633Z,98.60
2018-03-24T06:27:50.672Z,107.95
2018-03-24T06:33:29.303Z,92.07
2018-03-24T06:35:58.431Z,53.75
2018-03-24T06:38:27.537Z,56.77
2018-03-24T06:40:56.635Z,58.87
2018-03-24T06:43:25.551Z,54.43
2018-03-24T06:45:54.500Z,53.37
2018-03-24T06:48:23.629Z,57.33
2018-03-24T06:50:52.563Z,57.70
2018-03-24T06:53:21.545Z,56.50
2018-03-24T06:55:50.609Z,60.80
2018-03-24T06:58:19.532Z,62.00
2018-03-24T07:00:48.456Z,58.47
2018-03-24T07:03:17.884Z,56.65
2018-03-24T07:05:47.107Z,58.03
2018-03-24T07:08:16.342Z,57.13
2018-03-24T07:10:45.673Z,56.77
2018-03-24T07:13:15.061Z,66.78
2018-03-24T07:15:44.320Z,56.05
2018-03-24T07:18:13.988Z,55.42
2018-03-24T07:20:43.193Z,57.00
2018-03-24T07:23:12.391Z,54.85
2018-03-24T07:25:42.127Z,54.17
2018-03-24T07:28:12.775Z,51.67
2018-03-24T07:30:43.180Z,47.50
2018-03-24T07:33:13.681Z,44.72
2018-03-24T07:35:44.685Z,43.97
2018-03-24T07:38:16.506Z,48.28
2018-03-24T07:40:48.043Z,45.34
2018-03-24T07:43:18.356Z,47.16
2018-03-24T07:45:49.037Z,45.72
2018-03-24T07:48:19.714Z,47.88
2018-03-24T07:50:51.188Z,47.97
2018-03-24T07:53:21.749Z,47.25
2018-03-24T07:55:52.663Z,47.78
2018-03-24T07:58:23.619Z,45.72
2018-03-24T08:00:54.696Z,47.53
2018-03-24T08:03:25.637Z,48.87
2018-03-24T08:05:56.660Z,46.95
2018-03-24T08:08:27.631Z,50.05
2018-03-24T08:10:58.650Z,46.55
2018-03-24T08:13:29.596Z,48.70
2018-03-24T08:16:00.609Z,49.65
2018-03-24T08:18:31.205Z,46.02
2018-03-24T08:21:01.801Z,44.55
2018-03-24T08:23:32.687Z,44.30
2018-03-24T08:26:03.683Z,44.85
2018-03-24T08:28:34.608Z,44.85
2018-03-24T08:31:06.824Z,45.24
2018-03-24T08:33:36.164Z,47.87
2018-03-24T08:36:06.022Z,47.42
2018-03-24T08:38:36.799Z,41.70
2018-03-24T08:41:07.804Z,44.33
2018-03-24T08:43:38.732Z,45.22
2018-03-24T08:46:11.235Z,45.53
2018-03-24T08:48:41.043Z,45.55
2018-03-24T08:51:11.765Z,43.10
2018-03-24T08:53:42.726Z,44.30
2018-03-24T08:56:13.291Z,43.46
2018-03-24T08:58:43.777Z,42.08
2018-03-24T09:01:14.648Z,40.50
2018-03-24T09:03:45.641Z,41.45
2018-03-24T09:06:16.584Z,40.40
2018-03-24T09:08:47.670Z,41.13
2018-03-24T09:11:18.612Z,42.40
2018-03-24T09:13:49.595Z,43.35
2018-03-24T09:16:20.537Z,41.65
2018-03-24T09:18:51.515Z,53.10
2018-03-24T09:21:22.488Z,47.10
2018-03-24T09:23:53.508Z,41.65
2018-03-24T09:26:24.460Z,48.75
2018-03-24T09:28:55.448Z,43.60
2018-03-24T09:31:26.801Z,42.90
2018-03-24T09:33:57.859Z,43.10
2018-03-24T09:36:28.698Z,39.50
2018-03-24T09:38:59.717Z,38.63
2018-03-24T09:41:30.318Z,42.60
2018-03-24T09:44:01.440Z,41.55
2018-03-24T09:46:35.366Z,36.75
2018-03-24T09:49:04.917Z,40.53
2018-03-24T09:51:33.957Z,41.47
2018-03-24T09:54:04.405Z,38.05
2018-03-24T09:56:35.369Z,36.65
2018-03-24T09:59:06.804Z,40.16
2018-03-24T10:01:37.670Z,39.75
2018-03-24T10:04:12.290Z,36.92
2018-03-24T10:06:42.156Z,36.63
2018-03-24T10:09:11.417Z,38.95
2018-03-24T10:11:41.982Z,36.52
2018-03-24T10:14:13.045Z,33.10
2018-03-24T10:16:43.340Z,34.10
2018-03-24T10:19:14.062Z,34.88
2018-03-24T10:22:02.750Z,35.83
2018-03-24T10:24:32.245Z,33.78
2018-03-24T10:27:01.501Z,32.83
2018-03-24T10:29:30.829Z,33.30
2018-03-24T10:32:00.431Z,34.28
2018-03-24T10:34:29.768Z,33.38
2018-03-24T10:36:59.055Z,32.78
2018-03-24T10:39:28.298Z,34.15
2018-03-24T10:41:57.809Z,37.63
2018-03-24T10:44:26.992Z,34.05
2018-03-24T10:46:56.250Z,34.60
2018-03-24T10:49:26.196Z,31.62
2018-03-24T10:51:55.389Z,32.15
2018-03-24T10:54:26.067Z,27.18
2018-03-24T10:56:56.666Z,26.92
2018-03-24T10:59:27.653Z,25.62
2018-03-24T11:01:59.134Z,29.63
2018-03-24T11:04:29.740Z,28.70
2018-03-24T11:07:00.659Z,28.98
2018-03-24T11:09:31.685Z,28.87
2018-03-24T11:12:02.642Z,29.70
2018-03-24T11:14:33.631Z,28.98
2018-03-24T11:17:04.595Z,27.42
2018-03-24T11:19:35.592Z,29.50
2018-03-24T11:22:06.500Z,27.25
2018-03-24T11:24:37.526Z,23.20
2018-03-24T11:27:08.477Z,21.90
2018-03-24T11:29:39.469Z,27.50
2018-03-24T11:32:10.081Z,21.98
2018-03-24T11:34:40.853Z,22.98
2018-03-24T11:37:11.860Z,24.10
2018-03-24T11:39:42.722Z,23.70
2018-03-24T11:42:13.668Z,25.17
2018-03-24T11:44:44.691Z,25.70
2018-03-24T11:47:15.195Z,25.12
2018-03-24T11:49:45.781Z,27.90
2018-03-24T11:52:16.622Z,23.25
2018-03-24T11:54:47.837Z,17.02
2018-03-24T11:57:18.595Z,15.50
2018-03-24T11:59:49.936Z,15.65
2018-03-24T12:02:20.695Z,15.75
2018-03-24T12:04:51.702Z,17.95
2018-03-24T12:07:24.222Z,17.67
2018-03-24T12:09:53.506Z,22.70
2018-03-24T12:12:24.077Z,21.06
2018-03-24T12:14:55.083Z,14.87
2018-03-24T12:17:25.142Z,10.07
2018-03-24T12:19:55.833Z,11.30
2018-03-24T12:22:26.960Z,11.70
2018-03-24T12:31:10.307Z,13.07
2018-03-24T12:33:39.548Z,12.27
2018-03-24T12:36:08.619Z,13.17
2018-03-24T12:38:38.764Z,10.40
2018-03-24T12:41:08.116Z,11.00
2018-03-24T12:43:37.030Z,10.10
2018-03-24T12:46:06.013Z,14.43
2018-03-24T12:48:34.927Z,14.27
2018-03-24T12:51:03.800Z,12.43
2018-03-24T12:53:32.792Z,14.00
2018-03-24T12:56:01.692Z,21.47
2018-03-24T12:58:30.613Z,23.13
2018-03-24T13:00:59.599Z,28.27
2018-03-24T13:03:28.528Z,25.63
2018-03-24T13:05:57.590Z,33.17
2018-03-24T13:08:26.587Z,20.53
2018-03-24T13:10:55.499Z,30.43
2018-03-24T13:13:24.482Z,31.03
2018-03-24T13:15:53.572Z,28.40
2018-03-24T13:18:22.559Z,27.73
2018-03-24T13:20:51.498Z,17.40
2018-03-24T13:23:20.595Z,16.60
2018-03-24T13:25:49.620Z,25.97
2018-03-24T13:28:18.510Z,23.03
2018-03-24T13:30:47.654Z,22.63
2018-03-24T13:33:16.575Z,24.43
2018-03-24T13:35:45.490Z,23.40
2018-03-24T13:38:14.787Z,24.23
2018-03-24T13:40:44.180Z,23.23
2018-03-24T13:46:17.863Z,42.83
2018-03-24T13:48:46.821Z,31.20
2018-03-24T13:51:15.756Z,30.63
2018-03-24T13:53:44.715Z,25.97
2018-03-24T13:56:13.694Z,23.20
2018-03-24T13:58:42.798Z,23.63
2018-03-24T14:01:11.713Z,24.63
2018-03-24T14:03:40.719Z,27.10
2018-03-24T14:06:10.247Z,29.70
2018-03-24T14:08:39.422Z,27.60
2018-03-24T14:11:08.622Z,27.10
2018-03-24T14:13:37.657Z,26.87
2018-03-24T14:16:06.624Z,32.30
2018-03-24T14:18:35.615Z,28.07
2018-03-24T14:21:04.550Z,33.87
2018-03-24T14:23:33.465Z,27.80
2018-03-24T14:26:02.527Z,30.00
2018-03-24T14:28:31.473Z,26.67
2018-03-24T14:31:00.657Z,28.62
2018-03-24T14:33:29.906Z,38.00
2018-03-24T14:35:59.110Z,29.27
2018-03-24T14:38:28.316Z,30.24
2018-03-24T14:40:57.628Z,35.80
2018-03-24T14:43:26.903Z,33.67
2018-03-24T14:45:56.103Z,42.33
2018-03-24T14:48:25.363Z,38.10
2018-03-24T14:50:54.591Z,34.60
2018-03-24T14:53:23.775Z,33.38
2018-03-24T14:55:53.026Z,35.85
2018-03-24T14:58:23.032Z,34.90
2018-03-24T15:00:53.791Z,55.85
2018-03-24T15:03:24.624Z,35.70
2018-03-24T15:05:55.540Z,57.68
2018-03-24T15:08:26.148Z,38.86
2018-03-24T15:10:56.770Z,30.33
2018-03-24T15:13:29.042Z,34.53
2018-03-24T15:15:59.081Z,30.15
2018-03-24T15:18:29.696Z,28.50
2018-03-24T15:21:00.704Z,34.85
2018-03-24T15:23:31.695Z,37.10
2018-03-24T15:26:02.767Z,35.13
2018-03-24T15:28:33.678Z,32.58
2018-03-24T15:31:15.125Z,33.78
2018-03-24T15:33:55.258Z,30.17
2018-03-24T15:36:35.524Z,30.60
2018-03-24T15:39:04.050Z,36.20
2018-03-24T15:41:32.983Z,32.17
2018-03-24T15:44:02.036Z,31.87
2018-03-24T15:46:31.016Z,34.27
2018-03-24T15:49:00.234Z,32.93
2018-03-24T15:51:29.556Z,35.90
2018-03-24T15:53:58.685Z,40.43
2018-03-24T15:56:27.602Z,44.03
2018-03-24T15:58:57.262Z,42.03
2018-03-24T16:01:26.516Z,37.93
2018-03-24T16:03:55.820Z,37.45
2018-03-24T16:06:25.099Z,42.47
2018-03-24T16:08:54.337Z,36.92
2018-03-24T16:11:24.547Z,39.28
2018-03-24T16:13:53.961Z,41.85
2018-03-24T16:16:23.163Z,42.43
2018-03-24T16:18:52.355Z,41.68
2018-03-24T16:21:22.129Z,40.53
2018-03-24T16:23:53.067Z,44.03
2018-03-24T16:26:23.805Z,44.67
2018-03-24T16:28:54.722Z,45.30
2018-03-24T16:31:25.766Z,44.80
2018-03-24T16:33:56.321Z,48.35
2018-03-24T16:36:26.843Z,50.65
2018-03-24T16:38:57.651Z,64.90
2018-03-24T16:41:28.692Z,78.07
2018-03-24T16:43:59.665Z,92.18
2018-03-24T16:46:30.801Z,69.57
2018-03-24T16:49:01.740Z,77.30
2018-03-24T16:51:32.922Z,68.28
2018-03-24T16:54:03.710Z,65.75
2018-03-24T16:56:34.747Z,63.53
2018-03-24T16:59:05.792Z,72.18
2018-03-24T17:01:36.670Z,77.43
2018-03-24T17:04:07.656Z,71.18
2018-03-24T17:06:38.377Z,70.72
2018-03-24T17:09:09.008Z,82.22
2018-03-24T17:11:39.816Z,77.82
2018-03-24T17:14:10.828Z,71.72
2018-03-24T17:16:41.754Z,73.70
2018-03-24T17:19:12.728Z,68.28
2018-03-24T17:21:43.704Z,53.30
2018-03-24T17:24:14.656Z,51.63
2018-03-24T17:26:45.297Z,56.28
2018-03-24T17:29:15.681Z,60.08
2018-03-24T17:31:46.421Z,66.57
2018-03-24T17:34:17.059Z,68.12
2018-03-24T17:36:47.880Z,70.25
2018-03-24T17:39:18.719Z,79.82
2018-03-24T17:41:49.675Z,89.00
2018-03-24T17:44:20.675Z,131.65
2018-03-24T17:46:51.740Z,124.32
2018-03-24T17:49:22.679Z,103.10
2018-03-24T17:51:53.339Z,95.90
2018-03-24T17:54:24.101Z,114.82
2018-03-24T17:56:54.754Z,115.72
2018-03-24T17:59:25.919Z,109.37
2018-03-24T18:01:56.846Z,111.35
2018-03-24T18:04:27.719Z,90.32
2018-03-24T18:06:59.053Z,91.65
2018-03-24T18:09:29.002Z,129.45
2018-03-24T18:11:59.794Z,155.32
2018-03-24T18:14:30.687Z,156.57
2018-03-24T18:17:01.430Z,150.70
2018-03-24T18:19:32.076Z,152.40
2018-03-24T18:22:02.054Z,153.20
2018-03-24T18:24:32.751Z,142.65
2018-03-24T18:27:03.791Z,132.32
2018-03-24T18:29:34.697Z,125.80
2018-03-24T18:32:05.447Z,115.56
2018-03-24T18:34:36.086Z,115.78
2018-03-24T18:37:06.802Z,110.05
2018-03-24T18:39:37.755Z,100.65
2018-03-24T18:42:08.751Z,100.70
2018-03-24T18:44:39.379Z,99.12
2018-03-24T18:47:10.163Z,97.48
2018-03-24T18:49:40.781Z,91.30
2018-03-24T18:52:11.785Z,87.75
2018-03-24T18:54:42.655Z,87.03
2018-03-24T18:57:13.314Z,85.40
2018-03-24T18:59:43.835Z,82.68
2018-03-24T19:02:14.770Z,85.53
2018-03-24T19:04:45.750Z,91.40
2018-03-24T19:07:16.747Z,99.93
2018-03-24T19:09:47.407Z,106.98
2018-03-24T19:12:18.170Z,117.00
2018-03-24T19:14:48.089Z,131.45
2018-03-24T19:17:18.750Z,121.22
2018-03-24T19:19:49.797Z,107.75
2018-03-24T19:22:20.709Z,108.65
2018-03-24T19:24:51.347Z,108.74
2018-03-24T19:27:22.191Z,106.60
2018-03-24T19:29:52.749Z,116.50
2018-03-24T19:32:24.086Z,110.43
2018-03-24T19:34:54.782Z,102.53
2018-03-24T19:37:25.419Z,93.08
2018-03-24T19:39:56.101Z,91.96
2018-03-24T19:42:26.152Z,87.45
2018-03-24T19:44:56.757Z,82.53
2018-03-24T19:47:27.828Z,87.85
2018-03-24T19:49:58.667Z,90.78
2018-03-24T19:52:29.733Z,94.10
2018-03-24T19:55:01.824Z,89.94
2018-03-24T19:57:32.407Z,87.42
2018-03-24T20:00:03.105Z,84.76
2018-03-24T20:02:34.204Z,80.57
2018-03-24T20:05:04.813Z,84.75
2018-03-24T20:07:35.679Z,84.65
2018-03-24T20:10:06.667Z,93.05
2018-03-24T20:12:37.713Z,91.45
2018-03-24T20:15:08.683Z,89.03
2018-03-24T20:17:39.762Z,87.80
2018-03-24T20:20:10.677Z,91.10
2018-03-24T20:22:41.736Z,91.32
2018-03-24T20:25:12.731Z,85.30
2018-03-24T20:27:43.788Z,79.40
2018-03-24T20:30:14.662Z,72.35
2018-03-24T20:32:45.762Z,69.53
2018-03-24T20:35:16.711Z,65.12
2018-03-24T20:37:47.772Z,64.32
2018-03-24T20:40:18.756Z,63.83
2018-03-24T20:42:50.481Z,56.28
2018-03-24T20:45:21.315Z,57.38
2018-03-24T20:47:51.295Z,54.97
2018-03-24T20:50:21.759Z,55.65
2018-03-24T20:52:54.896Z,58.50
2018-03-24T20:55:24.524Z,59.18
2018-03-24T20:57:55.333Z,59.84
2018-03-24T21:00:26.082Z,59.38
2018-03-24T21:02:56.788Z,64.97
2018-03-24T21:05:27.759Z,147.52
2018-03-24T21:07:58.547Z,186.50
2018-03-24T21:10:29.379Z,85.00
2018-03-24T21:12:59.887Z,91.57
2018-03-24T21:15:30.788Z,89.85
2018-03-24T21:18:01.826Z,73.43
2018-03-24T21:20:32.688Z,61.13
2018-03-24T21:23:03.626Z,58.95
2018-03-24T21:25:34.245Z,55.58
2018-03-24T21:28:04.120Z,57.22
2018-03-24T21:30:34.688Z,58.75
2018-03-24T21:33:05.819Z,58.90
2018-03-24T21:35:36.708Z,63.00
2018-03-24T21:38:07.374Z,64.64
2018-03-24T21:40:38.026Z,62.20
2018-03-24T21:43:08.075Z,61.30
2018-03-24T21:45:38.697Z,63.00
2018-03-24T21:48:09.726Z,65.55
2018-03-24T21:50:40.875Z,62.25
2018-03-24T21:53:11.771Z,57.15
2018-03-24T21:55:42.629Z,49.00
2018-03-24T21:58:13.667Z,48.17
2018-03-24T22:00:44.694Z,51.47
2018-03-24T22:03:15.351Z,60.02
2018-03-24T22:05:45.553Z,61.80
2018-03-24T22:08:16.591Z,64.57
2018-03-24T22:10:47.613Z,85.22
2018-03-24T22:13:18.584Z,76.07
2018-03-24T22:15:49.515Z,81.22
2018-03-24T22:18:20.422Z,58.95
2018-03-24T22:20:51.430Z,61.85
2018-03-24T22:23:22.486Z,62.25
2018-03-24T22:25:53.727Z,63.63
2018-03-24T22:28:24.772Z,67.22
2018-03-24T22:30:55.616Z,69.45
2018-03-24T22:33:26.773Z,72.94
2018-03-24T22:35:57.388Z,76.14
2018-03-24T22:38:28.084Z,76.62
2018-03-24T22:40:58.753Z,74.30
2018-03-24T22:43:29.664Z,76.75
2018-03-24T22:46:00.251Z,83.14
2018-03-24T22:48:31.204Z,75.78
2018-03-24T22:51:01.706Z,74.10
2018-03-24T22:53:32.734Z,74.15
2018-03-24T22:56:05.302Z,81.07
2018-03-24T22:58:34.623Z,79.00
2018-03-24T23:01:05.177Z,78.28
2018-03-24T23:03:35.828Z,68.30
2018-03-24T23:06:06.675Z,60.20
2018-03-24T23:08:37.740Z,60.12
2018-03-24T23:11:08.646Z,58.40
2018-03-24T23:13:39.716Z,60.90
2018-03-24T23:16:10.400Z,56.20
2018-03-24T23:18:41.744Z,58.13
2018-03-24T23:21:12.639Z,59.45
2018-03-24T23:23:43.448Z,58.87
2018-03-24T23:26:14.422Z,52.47
2018-03-24T23:28:45.084Z,52.50
2018-03-24T23:31:15.999Z,50.90
2018-03-24T23:33:46.740Z,46.10
2018-03-24T23:36:17.690Z,47.60
2018-03-24T23:38:48.727Z,53.87
2018-03-24T23:41:19.782Z,75.82
2018-03-24T23:43:50.832Z,61.88
2018-03-24T23:46:21.653Z,64.53
2018-03-24T23:48:52.306Z,69.36
2018-03-24T23:51:22.739Z,66.53
2018-03-24T23:53:53.755Z,59.05
2018-03-24T23:56:24.750Z,51.05
2018-03-24T23:58:55.627Z,48.70
